createdAt,value
2022-08-31T00:00:20.023Z,98144.72
2022-08-31T00:03:05.324Z,98165.91
2022-08-31T00:05:31.852Z,98162.84
2022-08-31T00:07:58.460Z,98179.50
2022-08-31T00:10:32.287Z,98164.63
2022-08-31T00:13:06.966Z,98181.69
2022-08-31T00:15:38.553Z,98190.31
2022-08-31T00:18:08.784Z,98164.16
2022-08-31T00:20:36.783Z,98167.09
2022-08-31T00:23:10.086Z,98184.44
2022-08-31T00:25:38.143Z,98173.13
2022-08-31T00:28:07.246Z,98152.72
2022-08-31T00:30:34.301Z,98164.91
2022-08-31T00:33:01.155Z,98157.91
2022-08-31T00:35:30.068Z,98168.59
2022-08-31T00:37:56.961Z,98176.84
2022-08-31T00:40:24.814Z,98169.63
2022-08-31T00:42:52.060Z,98163.47
2022-08-31T00:45:19.120Z,98179.53
2022-08-31T00:47:45.798Z,98160.19
2022-08-31T00:50:15.728Z,98179.72
2022-08-31T00:52:46.621Z,98189.63
2022-08-31T00:55:17.927Z,98187.78
2022-08-31T00:57:48.089Z,98164.69
2022-08-31T01:00:18.636Z,98188.38
2022-08-31T01:02:46.091Z,98168.41
2022-08-31T01:05:14.306Z,98180.94
2022-08-31T01:07:42.207Z,98196.22
2022-08-31T01:10:11.677Z,98193.97
2022-08-31T01:12:42.395Z,98182.63
2022-08-31T01:15:13.308Z,98190.22
2022-08-31T01:17:41.508Z,98186.13
2022-08-31T01:20:20.318Z,98203.41
2022-08-31T01:22:52.886Z,98202.78
2022-08-31T01:25:20.072Z,98200.53
2022-08-31T01:27:47.141Z,98180.53
2022-08-31T01:30:22.149Z,98187.34
2022-08-31T01:32:49.156Z,98190.84
2022-08-31T01:35:15.762Z,98184.28
2022-08-31T01:37:42.469Z,98155.22
2022-08-31T01:40:10.802Z,98167.56
2022-08-31T01:42:37.450Z,98167.38
2022-08-31T01:45:11.876Z,98177.03
2022-08-31T01:47:43.055Z,98157.91
2022-08-31T01:50:11.794Z,98156.47
2022-08-31T01:52:38.628Z,98163.66
2022-08-31T01:55:07.495Z,98178.69
2022-08-31T01:57:34.755Z,98177.47
2022-08-31T02:00:06.261Z,98177.88
2022-08-31T02:02:32.921Z,98165.94
2022-08-31T02:04:59.546Z,98175.81
2022-08-31T02:07:26.657Z,98178.66
2022-08-31T02:09:54.583Z,98155.22
2022-08-31T02:12:21.128Z,98175.63
2022-08-31T02:14:47.747Z,98183.22
2022-08-31T02:17:14.445Z,98156.00
2022-08-31T02:19:43.302Z,98153.16
2022-08-31T02:22:09.874Z,98163.84
2022-08-31T02:24:36.503Z,98170.22
2022-08-31T02:27:03.351Z,98162.19
2022-08-31T02:29:29.966Z,98163.25
2022-08-31T02:31:58.536Z,98163.44
2022-08-31T02:34:25.689Z,98156.38
2022-08-31T02:36:52.483Z,98154.28
2022-08-31T02:39:19.095Z,98164.81
2022-08-31T02:41:45.666Z,98167.06
2022-08-31T02:44:14.423Z,98153.44
2022-08-31T02:46:41.165Z,98160.88
2022-08-31T02:49:07.954Z,98167.63
2022-08-31T02:51:34.537Z,98174.22
2022-08-31T02:54:01.069Z,98167.44
2022-08-31T02:56:27.671Z,98165.56
2022-08-31T02:58:55.252Z,98170.31
2022-08-31T03:01:23.829Z,98164.41
2022-08-31T03:03:50.880Z,98177.56
2022-08-31T03:06:18.895Z,98170.53
2022-08-31T03:08:46.654Z,98182.47
2022-08-31T03:11:15.994Z,98159.47
2022-08-31T03:13:43.148Z,98154.97
2022-08-31T03:16:12.311Z,98181.59
2022-08-31T03:18:38.993Z,98159.16
2022-08-31T03:21:05.820Z,98160.75
2022-08-31T03:23:32.406Z,98184.75
2022-08-31T03:25:59.873Z,98185.41
2022-08-31T03:28:26.446Z,98184.47
2022-08-31T03:30:53.027Z,98182.63
2022-08-31T03:33:19.686Z,98180.97
2022-08-31T03:35:46.339Z,98172.63
2022-08-31T03:38:14.013Z,98183.19
2022-08-31T03:40:42.421Z,98166.09
2022-08-31T03:43:11.374Z,98182.13
2022-08-31T03:45:41.210Z,98182.53
2022-08-31T03:48:12.478Z,98163.78
2022-08-31T03:50:40.114Z,98185.88
2022-08-31T03:53:08.446Z,98184.69
2022-08-31T03:55:38.379Z,98192.41
2022-08-31T03:58:05.981Z,98175.16
2022-08-31T04:00:33.048Z,98168.00
2022-08-31T04:03:01.588Z,98181.81
2022-08-31T04:05:34.265Z,98171.09
2022-08-31T04:08:00.857Z,98174.88
2022-08-31T04:10:27.427Z,98172.13
2022-08-31T04:12:54.057Z,98177.88
2022-08-31T04:15:22.713Z,98198.56
2022-08-31T04:17:52.149Z,98175.44
2022-08-31T04:20:29.549Z,98201.22
2022-08-31T04:22:56.834Z,98195.47
2022-08-31T04:25:23.406Z,98174.25
2022-08-31T04:27:50.408Z,98191.94
2022-08-31T04:30:17.924Z,98181.63
2022-08-31T04:32:44.510Z,98168.38
2022-08-31T04:35:11.263Z,98183.56
2022-08-31T04:37:39.824Z,98167.44
2022-08-31T04:40:20.313Z,98196.13
2022-08-31T04:42:52.396Z,98211.59
2022-08-31T04:45:21.851Z,98189.75
2022-08-31T04:47:50.479Z,98189.13
2022-08-31T04:50:18.224Z,98190.56
2022-08-31T04:52:58.380Z,98194.25
2022-08-31T04:55:32.050Z,98204.38
2022-08-31T04:57:58.665Z,98194.50
2022-08-31T05:00:25.951Z,98187.50
2022-08-31T05:02:54.154Z,98195.31
2022-08-31T05:05:20.832Z,98182.06
2022-08-31T05:07:49.561Z,98179.00
2022-08-31T05:10:16.223Z,98183.59
2022-08-31T05:12:44.433Z,98160.47
2022-08-31T05:15:11.858Z,98174.38
2022-08-31T05:17:39.213Z,98154.81
2022-08-31T05:20:06.722Z,98179.16
2022-08-31T05:22:33.845Z,98172.97
2022-08-31T05:25:01.003Z,98171.59
2022-08-31T05:27:28.416Z,98159.63
2022-08-31T05:29:55.044Z,98171.59
2022-08-31T05:32:21.945Z,98148.31
2022-08-31T05:34:49.523Z,98178.00
2022-08-31T05:37:16.260Z,98171.44
2022-08-31T05:39:43.362Z,98173.72
2022-08-31T05:42:10.780Z,98171.91
2022-08-31T05:44:37.407Z,98165.97
2022-08-31T05:47:07.099Z,98171.16
2022-08-31T05:49:34.967Z,98174.06
2022-08-31T05:52:02.067Z,98179.84
2022-08-31T05:54:31.328Z,98148.72
2022-08-31T05:57:12.311Z,98173.25
2022-08-31T05:59:39.854Z,98188.88
2022-08-31T06:02:09.678Z,98192.38
2022-08-31T06:04:36.428Z,98184.50
2022-08-31T06:07:03.423Z,98169.69
2022-08-31T06:09:30.242Z,98170.41
2022-08-31T06:11:56.877Z,98149.63
2022-08-31T06:14:23.746Z,98186.34
2022-08-31T06:16:50.791Z,98186.38
2022-08-31T06:19:17.734Z,98186.22
2022-08-31T06:21:50.067Z,98174.28
2022-08-31T06:24:21.728Z,98197.81
2022-08-31T06:26:58.984Z,98179.09
2022-08-31T06:29:27.597Z,98176.00
2022-08-31T06:31:54.715Z,98181.97
2022-08-31T06:34:29.189Z,98157.06
2022-08-31T06:36:56.059Z,98163.88
2022-08-31T06:39:23.532Z,98185.91
2022-08-31T06:41:52.722Z,98172.72
2022-08-31T06:44:24.083Z,98177.88
2022-08-31T06:46:51.964Z,98182.59
2022-08-31T06:49:22.946Z,98138.53
2022-08-31T06:51:52.501Z,98153.78
2022-08-31T06:54:29.510Z,98136.88
2022-08-31T06:56:58.705Z,98167.53
2022-08-31T06:59:28.885Z,98154.75
2022-08-31T07:02:12.574Z,98186.56
2022-08-31T07:04:39.642Z,98175.22
2022-08-31T07:07:09.025Z,98187.66
2022-08-31T07:09:35.830Z,98162.09
2022-08-31T07:12:02.771Z,98192.47
2022-08-31T07:14:29.440Z,98186.94
2022-08-31T07:16:58.177Z,98161.34
2022-08-31T07:19:26.556Z,98168.31
2022-08-31T07:21:56.554Z,98179.44
2022-08-31T07:24:28.650Z,98196.06
2022-08-31T07:26:58.836Z,98194.41
2022-08-31T07:29:30.473Z,98182.94
2022-08-31T07:31:59.527Z,98179.75
2022-08-31T07:34:30.198Z,98194.56
2022-08-31T07:37:17.481Z,98194.09
2022-08-31T07:40:07.609Z,98194.81
2022-08-31T07:42:43.256Z,98180.41
2022-08-31T07:45:22.619Z,98196.81
2022-08-31T07:47:55.101Z,98197.41
2022-08-31T07:50:23.196Z,98164.78
2022-08-31T07:52:54.510Z,98167.06
2022-08-31T07:55:26.768Z,98169.38
2022-08-31T07:57:55.184Z,98190.03
2022-08-31T08:00:25.497Z,98179.38
2022-08-31T08:02:54.143Z,98201.28
2022-08-31T08:05:27.659Z,98199.38
2022-08-31T08:07:58.460Z,98192.06
2022-08-31T08:10:27.675Z,98184.97
2022-08-31T08:12:59.430Z,98187.84
2022-08-31T08:15:26.808Z,98174.78
2022-08-31T08:17:53.428Z,98167.00
2022-08-31T08:20:34.519Z,98199.94
2022-08-31T08:23:14.376Z,98203.81
2022-08-31T08:25:55.421Z,98200.88
2022-08-31T08:28:40.982Z,98191.63
2022-08-31T08:31:13.081Z,98195.66
2022-08-31T08:33:39.823Z,98173.38
2022-08-31T08:36:08.467Z,98201.75
2022-08-31T08:38:39.447Z,98180.31
2022-08-31T08:41:12.853Z,98182.75
2022-08-31T08:43:44.149Z,98202.44
2022-08-31T08:46:33.859Z,98196.06
2022-08-31T08:49:15.414Z,98191.47
2022-08-31T08:51:42.875Z,98195.53
2022-08-31T08:54:20.458Z,98188.09
2022-08-31T08:56:50.012Z,98191.78
2022-08-31T08:59:19.526Z,98204.59
2022-08-31T09:01:48.968Z,98199.13
2022-08-31T09:04:44.857Z,98201.81
2022-08-31T09:07:17.198Z,98206.31
2022-08-31T09:10:00.861Z,98198.16
2022-08-31T09:12:58.124Z,98196.41
2022-08-31T09:15:38.699Z,98187.16
2022-08-31T09:18:14.088Z,98190.31
2022-08-31T09:20:41.292Z,98171.88
2022-08-31T09:23:08.185Z,98177.88
2022-08-31T09:25:47.839Z,98188.06
2022-08-31T09:28:15.275Z,98192.59
2022-08-31T09:30:52.344Z,98192.41
2022-08-31T09:33:27.823Z,98175.50
2022-08-31T09:36:15.346Z,98183.03
2022-08-31T09:38:46.819Z,98186.66
2022-08-31T09:41:33.364Z,98179.28
2022-08-31T09:44:24.135Z,98178.00
2022-08-31T09:46:54.655Z,98173.84
2022-08-31T09:49:25.704Z,98163.88
2022-08-31T09:51:52.514Z,98162.25
2022-08-31T09:54:46.884Z,98162.91
2022-08-31T09:57:14.210Z,98161.84
2022-08-31T09:59:44.566Z,98160.34
2022-08-31T10:02:23.134Z,98158.00
2022-08-31T10:04:56.534Z,98150.47
2022-08-31T10:07:50.483Z,98158.31
2022-08-31T10:10:31.762Z,98148.69
2022-08-31T10:13:13.405Z,98152.06
2022-08-31T10:15:54.261Z,98144.72
2022-08-31T10:19:06.645Z,98133.59
2022-08-31T10:21:53.464Z,98134.97
2022-08-31T10:24:28.470Z,98139.88
2022-08-31T10:27:22.526Z,98113.97
2022-08-31T10:30:10.162Z,98121.41
2022-08-31T10:32:47.624Z,98124.94
2022-08-31T10:35:26.831Z,98132.28
2022-08-31T10:38:14.779Z,98127.56
2022-08-31T10:40:50.981Z,98120.59
2022-08-31T10:43:29.247Z,98119.75
2022-08-31T10:45:59.765Z,98115.44
2022-08-31T10:48:27.496Z,98118.97
2022-08-31T10:51:05.763Z,98122.66
2022-08-31T10:54:20.572Z,98121.69
2022-08-31T10:56:59.343Z,98118.84
2022-08-31T10:59:58.725Z,98100.88
2022-08-31T11:03:04.801Z,98109.09
2022-08-31T11:05:37.627Z,98110.78
2022-08-31T11:08:22.964Z,98098.31
2022-08-31T11:10:52.875Z,98086.66
2022-08-31T11:13:38.615Z,98098.31
2022-08-31T11:16:16.405Z,98096.91
2022-08-31T11:19:11.689Z,98091.03
2022-08-31T11:22:08.879Z,98095.84
2022-08-31T11:25:01.727Z,98089.47
2022-08-31T11:27:37.006Z,98092.84
2022-08-31T11:30:27.298Z,98094.53
2022-08-31T11:32:57.465Z,98089.25
2022-08-31T11:36:06.645Z,98087.69
2022-08-31T11:38:57.125Z,98073.81
2022-08-31T11:41:46.859Z,98076.16
2022-08-31T11:44:29.879Z,98075.22
2022-08-31T11:47:12.908Z,98073.91
2022-08-31T11:49:50.165Z,98065.81
2022-08-31T11:52:29.255Z,98072.00
2022-08-31T11:55:00.919Z,98061.63
2022-08-31T11:57:35.627Z,98057.53
2022-08-31T12:00:21.760Z,98055.81
2022-08-31T12:03:09.367Z,98052.56
2022-08-31T12:05:50.960Z,98044.91
2022-08-31T12:08:18.544Z,98039.75
2022-08-31T12:10:52.849Z,98034.22
2022-08-31T12:13:36.893Z,98038.94
2022-08-31T12:16:19.035Z,98017.13
2022-08-31T12:19:06.569Z,98037.41
2022-08-31T12:22:06.863Z,98014.19
2022-08-31T12:24:49.781Z,98022.59
2022-08-31T12:27:25.733Z,98019.38
2022-08-31T12:30:21.090Z,98019.84
2022-08-31T12:32:59.149Z,98012.75
2022-08-31T12:35:28.822Z,98017.16
2022-08-31T12:38:09.168Z,98028.66
2022-08-31T12:40:51.197Z,98009.88
2022-08-31T12:43:22.693Z,98026.78
2022-08-31T12:46:01.144Z,98028.66
2022-08-31T12:48:39.584Z,98004.19
2022-08-31T12:51:48.138Z,98020.19
2022-08-31T12:54:33.351Z,98022.34
2022-08-31T12:57:07.017Z,98012.09
2022-08-31T13:00:08.019Z,98023.28
2022-08-31T13:02:43.979Z,98012.44
2022-08-31T13:05:19.439Z,98009.06
2022-08-31T13:07:46.202Z,98001.88
2022-08-31T13:10:27.273Z,98013.81
2022-08-31T13:12:58.893Z,97997.19
2022-08-31T13:15:44.446Z,97998.84
2022-08-31T13:18:26.558Z,97997.88
2022-08-31T13:21:05.983Z,97989.50
2022-08-31T13:23:42.267Z,97991.28
2022-08-31T13:26:20.644Z,97990.50
2022-08-31T13:28:53.225Z,98000.41
2022-08-31T13:31:26.830Z,97996.63
2022-08-31T13:34:00.678Z,97979.09
2022-08-31T13:36:33.936Z,97981.91
2022-08-31T13:39:11.578Z,97985.63
2022-08-31T13:41:57.018Z,97982.44
2022-08-31T13:44:27.886Z,97980.13
2022-08-31T13:47:03.011Z,97982.91
2022-08-31T13:49:38.530Z,97976.78
2022-08-31T13:52:14.960Z,97983.97
2022-08-31T13:54:44.319Z,97970.41
2022-08-31T13:57:25.848Z,97977.34
2022-08-31T13:59:54.780Z,97978.94
2022-08-31T14:02:37.416Z,97974.66
2022-08-31T14:05:11.946Z,97979.25
2022-08-31T14:07:46.663Z,97983.47
2022-08-31T14:10:20.311Z,97977.16
2022-08-31T14:12:47.279Z,97974.16
2022-08-31T14:15:21.375Z,97973.47
2022-08-31T14:21:16.849Z,97979.28
2022-08-31T14:23:37.202Z,97989.38
2022-08-31T14:26:18.693Z,97981.56
2022-08-31T14:28:50.646Z,97982.53
2022-08-31T14:31:49.245Z,97981.53
2022-08-31T14:34:25.761Z,97973.16
2022-08-31T14:37:19.357Z,97950.72
2022-08-31T14:39:50.615Z,97962.50
2022-08-31T14:42:30.529Z,97978.56
2022-08-31T14:45:05.820Z,97955.50
2022-08-31T14:47:36.355Z,97960.50
2022-08-31T14:50:09.852Z,97957.78
2022-08-31T14:52:43.052Z,97962.97
2022-08-31T14:55:11.454Z,97963.09
2022-08-31T14:57:47.294Z,97965.16
2022-08-31T15:00:23.227Z,97950.84
2022-08-31T15:02:53.787Z,97962.59
2022-08-31T15:05:23.545Z,97965.88
2022-08-31T15:07:55.917Z,97951.22
2022-08-31T15:10:26.075Z,97962.50
2022-08-31T15:12:55.783Z,97937.94
2022-08-31T15:15:22.463Z,97947.59
2022-08-31T15:17:51.885Z,97955.97
2022-08-31T15:20:21.054Z,97957.91
2022-08-31T15:22:48.867Z,97945.03
2022-08-31T15:25:22.227Z,97957.50
2022-08-31T15:27:51.054Z,97946.22
2022-08-31T15:30:20.933Z,97933.63
2022-08-31T15:32:48.744Z,97943.06
2022-08-31T15:35:20.296Z,97947.91
2022-08-31T15:37:56.625Z,97934.59
2022-08-31T15:40:29.154Z,97942.78
2022-08-31T15:42:56.169Z,97933.53
2022-08-31T15:45:23.708Z,97928.53
2022-08-31T15:48:18.644Z,97921.38
2022-08-31T15:50:57.529Z,97915.94
2022-08-31T15:53:30.578Z,97919.31
2022-08-31T15:56:08.259Z,97904.31
2022-08-31T15:58:39.041Z,97921.75
2022-08-31T16:01:14.083Z,97920.88
2022-08-31T16:03:42.076Z,97919.25
2022-08-31T16:06:41.173Z,97884.28
2022-08-31T16:09:09.747Z,97910.31
2022-08-31T16:11:40.151Z,97913.81
2022-08-31T16:14:11.030Z,97912.88
2022-08-31T16:16:40.263Z,97914.69
2022-08-31T16:19:10.052Z,97911.25
2022-08-31T16:21:44.452Z,97923.06
2022-08-31T16:24:14.140Z,97922.59
2022-08-31T16:26:43.376Z,97931.75
2022-08-31T16:29:13.796Z,97929.19
2022-08-31T16:31:42.038Z,97923.91
2022-08-31T16:34:09.061Z,97925.34
2022-08-31T16:36:35.939Z,97921.66
2022-08-31T16:39:04.052Z,97918.78
2022-08-31T16:41:32.101Z,97929.44
2022-08-31T16:44:18.530Z,97919.94
2022-08-31T16:46:46.516Z,97930.63
2022-08-31T16:49:31.556Z,97915.06
2022-08-31T16:51:58.358Z,97913.56
2022-08-31T16:54:28.734Z,97913.00
2022-08-31T16:56:58.347Z,97918.28
2022-08-31T16:59:29.404Z,97917.53
2022-08-31T17:01:56.595Z,97920.31
2022-08-31T17:04:50.511Z,97919.38
2022-08-31T17:07:14.995Z,97913.31
2022-08-31T17:09:42.718Z,97918.56
2022-08-31T17:12:13.289Z,97921.28
2022-08-31T17:14:47.116Z,97910.69
2022-08-31T17:17:19.590Z,97927.16
2022-08-31T17:19:47.310Z,97926.19
2022-08-31T17:22:23.448Z,97914.44
2022-08-31T17:24:56.782Z,97920.59
2022-08-31T17:27:23.811Z,97917.88
2022-08-31T17:29:52.652Z,97913.16
2022-08-31T17:32:27.379Z,97909.28
2022-08-31T17:34:57.530Z,97914.34
2022-08-31T17:37:36.176Z,97913.94
2022-08-31T17:40:08.281Z,97893.38
2022-08-31T17:42:35.857Z,97911.34
2022-08-31T17:45:05.775Z,97907.03
2022-08-31T17:47:33.178Z,97905.13
2022-08-31T17:50:00.511Z,97920.56
2022-08-31T17:52:30.233Z,97909.19
2022-08-31T17:55:01.876Z,97907.53
2022-08-31T17:57:29.637Z,97905.56
2022-08-31T17:59:57.662Z,97903.06
2022-08-31T18:02:32.222Z,97917.72
2022-08-31T18:04:59.281Z,97916.28
2022-08-31T18:07:28.432Z,97908.34
2022-08-31T18:09:55.020Z,97913.41
2022-08-31T18:12:22.802Z,97907.88
2022-08-31T18:14:49.866Z,97919.22
2022-08-31T18:17:17.162Z,97907.41
2022-08-31T18:19:45.144Z,97925.84
2022-08-31T18:22:14.235Z,97926.66
2022-08-31T18:24:42.029Z,97927.78
2022-08-31T18:27:10.526Z,97919.06
2022-08-31T18:29:38.541Z,97908.91
2022-08-31T18:32:07.652Z,97921.34
2022-08-31T18:34:37.097Z,97926.75
2022-08-31T18:37:04.770Z,97920.59
2022-08-31T18:39:55.138Z,97916.47
2022-08-31T18:42:45.663Z,97913.84
2022-08-31T18:45:15.516Z,97921.34
2022-08-31T18:47:43.295Z,97921.44
2022-08-31T18:50:10.090Z,97918.28
2022-08-31T18:52:39.459Z,97940.22
2022-08-31T18:55:07.628Z,97941.72
2022-08-31T18:57:34.435Z,97941.28
2022-08-31T19:00:14.589Z,97927.00
2022-08-31T19:02:43.817Z,97932.72
2022-08-31T19:05:12.223Z,97945.44
2022-08-31T19:07:41.233Z,97950.69
2022-08-31T19:10:14.276Z,97933.22
2022-08-31T19:12:42.922Z,97947.88
2022-08-31T19:15:12.450Z,97926.50
2022-08-31T19:17:41.922Z,97949.28
2022-08-31T19:20:10.687Z,97949.16
2022-08-31T19:22:38.375Z,97953.19
2022-08-31T19:25:07.188Z,97948.84
2022-08-31T19:27:35.034Z,97955.16
2022-08-31T19:30:01.573Z,97964.06
2022-08-31T19:32:28.246Z,97963.69
2022-08-31T19:34:54.876Z,97956.16
2022-08-31T19:37:23.857Z,97971.78
2022-08-31T19:39:50.381Z,97945.50
2022-08-31T19:42:17.483Z,97959.91
2022-08-31T19:44:55.858Z,97957.59
2022-08-31T19:47:38.751Z,97961.59
2022-08-31T19:50:13.709Z,97965.28
2022-08-31T19:52:40.495Z,97971.72
2022-08-31T19:55:09.318Z,97951.28
2022-08-31T19:57:37.451Z,97962.09
2022-08-31T20:00:07.105Z,97960.56
2022-08-31T20:02:33.713Z,97952.63
2022-08-31T20:05:02.750Z,97961.38
2022-08-31T20:07:29.621Z,97940.28
2022-08-31T20:09:56.278Z,97951.69
2022-08-31T20:12:22.858Z,97948.94
2022-08-31T20:14:49.435Z,97964.41
2022-08-31T20:17:15.965Z,97956.13
2022-08-31T20:19:42.833Z,97957.41
2022-08-31T20:22:09.410Z,97956.97
2022-08-31T20:24:43.619Z,97951.00
2022-08-31T20:27:14.115Z,97964.25
2022-08-31T20:29:41.039Z,97962.19
2022-08-31T20:32:08.153Z,97944.97
2022-08-31T20:34:35.280Z,97953.28
2022-08-31T20:37:05.031Z,97953.28
2022-08-31T20:39:35.489Z,97966.19
2022-08-31T20:42:21.279Z,97934.59
2022-08-31T20:44:49.933Z,97941.84
2022-08-31T20:47:35.026Z,97949.00
2022-08-31T20:50:07.441Z,97935.25
2022-08-31T20:52:35.249Z,97945.97
2022-08-31T20:55:04.722Z,97946.88
2022-08-31T20:57:33.511Z,97938.47
2022-08-31T21:00:03.849Z,97944.91
2022-08-31T21:02:32.280Z,97935.78
2022-08-31T21:05:10.402Z,97938.50
2022-08-31T21:07:45.656Z,97927.16
2022-08-31T21:10:12.274Z,97929.72
2022-08-31T21:12:38.814Z,97940.75
2022-08-31T21:15:08.034Z,97928.09
2022-08-31T21:17:34.654Z,97936.06
2022-08-31T21:20:01.269Z,97932.31
2022-08-31T21:22:27.816Z,97935.56
2022-08-31T21:24:59.769Z,97926.19
2022-08-31T21:27:29.476Z,97929.28
2022-08-31T21:29:56.548Z,97937.91
2022-08-31T21:32:23.293Z,97942.94
2022-08-31T21:34:49.831Z,97935.22
2022-08-31T21:37:16.395Z,97920.34
2022-08-31T21:39:42.986Z,97937.13
2022-08-31T21:42:09.565Z,97934.28
2022-08-31T21:44:38.945Z,97927.25
2022-08-31T21:47:14.782Z,97939.09
2022-08-31T21:49:43.835Z,97949.25
2022-08-31T21:52:11.999Z,97947.19
2022-08-31T21:54:40.968Z,97941.31
2022-08-31T21:57:07.555Z,97953.72
2022-08-31T21:59:38.949Z,97944.81
2022-08-31T22:02:11.185Z,97949.81
2022-08-31T22:04:40.701Z,97943.13
2022-08-31T22:07:10.187Z,97941.97
2022-08-31T22:09:40.245Z,97946.75
2022-08-31T22:12:08.278Z,97920.03
2022-08-31T22:14:41.297Z,97947.53
2022-08-31T22:17:09.418Z,97938.50
2022-08-31T22:19:40.678Z,97936.84
2022-08-31T22:22:12.652Z,97933.22
2022-08-31T22:24:40.471Z,97931.00
2022-08-31T22:27:09.821Z,97930.53
2022-08-31T22:29:37.945Z,97933.56
2022-08-31T22:32:13.250Z,97928.19
2022-08-31T22:34:40.758Z,97935.13
2022-08-31T22:37:11.990Z,97928.34
2022-08-31T22:39:39.828Z,97934.31
2022-08-31T22:42:09.033Z,97929.03
2022-08-31T22:44:39.756Z,97912.53
2022-08-31T22:47:06.396Z,97921.41
2022-08-31T22:49:33.218Z,97905.25
2022-08-31T22:51:59.793Z,97909.69
2022-08-31T22:54:26.671Z,97914.13
2022-08-31T22:56:53.763Z,97914.81
2022-08-31T22:59:27.219Z,97902.16
2022-08-31T23:01:57.125Z,97908.19
2022-08-31T23:04:26.383Z,97916.56
2022-08-31T23:06:53.239Z,97908.25
2022-08-31T23:09:22.089Z,97910.50
2022-08-31T23:11:51.643Z,97891.66
2022-08-31T23:14:21.039Z,97910.81
2022-08-31T23:16:57.596Z,97913.50
2022-08-31T23:19:33.419Z,97923.22
2022-08-31T23:22:00.978Z,97920.16
2022-08-31T23:24:44.750Z,97909.78
2022-08-31T23:27:13.439Z,97921.06
2022-08-31T23:29:47.848Z,97929.28
2022-08-31T23:32:18.215Z,97913.25
2022-08-31T23:34:46.660Z,97924.84
2022-08-31T23:37:14.167Z,97928.31
2022-08-31T23:39:46.147Z,97930.09
2022-08-31T23:42:16.454Z,97918.75
2022-08-31T23:44:44.874Z,97922.88
2022-08-31T23:47:15.110Z,97914.44
2022-08-31T23:49:43.862Z,97910.31
2022-08-31T23:52:18.759Z,97910.31
2022-08-31T23:54:46.885Z,97912.63
2022-08-31T23:57:31.835Z,97905.94
